Time;durP1;ratioP1;P1;durP2;ratioP2;P2;SDS_P1;SDS_P2;PMS_P1;PMS_P2;Temp;Humidity;BMP_temperature;BMP_pressure;BME280_temperature;BME280_humidity;BME280_pressure;Samples;Min_cycle;Max_cycle;Signal;HPM_P1;HPM_P2
2024/02/04 00:01:23;;;;;;;10.33;2.47;;;22.00;68.60;;;;;;4933006;28;21112;-85
2024/02/04 00:03:50;;;;;;;4.43;2.60;;;21.90;68.50;;;;;;4937917;28;20501;-86
2024/02/04 00:06:16;;;;;;;3.13;2.07;;;21.90;68.60;;;;;;4938921;28;22975;-85
2024/02/04 00:08:43;;;;;;;2.70;2.00;;;21.90;68.60;;;;;;4936416;28;20458;-86
2024/02/04 00:11:11;;;;;;;4.50;2.40;;;21.90;68.50;;;;;;4936835;28;20557;-84
2024/02/04 00:13:38;;;;;;;2.73;2.37;;;21.90;68.50;;;;;;4935164;28;20475;-85
2024/02/04 00:16:07;;;;;;;2.60;1.90;;;21.90;68.40;;;;;;4937176;28;20507;-86
2024/02/04 00:18:34;;;;;;;3.27;2.13;;;21.90;68.40;;;;;;4931733;28;20908;-85
2024/02/04 00:21:00;;;;;;;3.10;2.67;;;21.90;68.40;;;;;;4936976;28;21059;-86
2024/02/04 00:23:27;;;;;;;3.60;2.17;;;21.80;68.30;;;;;;4937258;28;20458;-85
2024/02/04 00:25:54;;;;;;;5.17;2.70;;;21.80;68.20;;;;;;4930591;28;21202;-85
2024/02/04 00:28:21;;;;;;;2.20;1.83;;;21.80;68.20;;;;;;4936773;28;21122;-86
2024/02/04 00:30:49;;;;;;;4.10;2.93;;;21.80;68.20;;;;;;4919493;28;20505;-85
2024/02/04 00:33:17;;;;;;;5.30;2.40;;;21.80;68.30;;;;;;4937206;28;20498;-86
2024/02/04 00:35:44;;;;;;;3.07;1.80;;;21.70;68.10;;;;;;4927677;28;20693;-85
2024/02/04 00:38:11;;;;;;;4.10;2.23;;;21.70;68.10;;;;;;4937027;28;20987;-84
2024/02/04 00:40:37;;;;;;;4.03;2.37;;;21.70;68.20;;;;;;4938671;28;20760;-85
2024/02/04 00:43:05;;;;;;;2.80;1.70;;;21.70;68.20;;;;;;4937237;28;21008;-85
2024/02/04 00:45:32;;;;;;;2.77;1.90;;;21.70;68.30;;;;;;4934107;28;20477;-85
2024/02/04 00:47:58;;;;;;;3.50;2.23;;;21.70;68.30;;;;;;4932653;28;20564;-85
2024/02/04 00:50:26;;;;;;;2.10;1.80;;;21.70;68.20;;;;;;4936196;28;20600;-86
2024/02/04 00:52:53;;;;;;;2.43;1.90;;;21.60;68.20;;;;;;4941470;28;26296;-86
2024/02/04 00:55:20;;;;;;;3.80;2.30;;;21.60;68.10;;;;;;4935939;28;21082;-86
2024/02/04 00:57:47;;;;;;;5.67;2.37;;;21.60;68.20;;;;;;4938594;28;20542;-86
2024/02/04 01:00:14;;;;;;;3.77;3.13;;;21.60;68.70;;;;;;4937014;28;20475;-85
2024/02/04 01:02:41;;;;;;;2.20;2.00;;;21.60;68.20;;;;;;4930509;28;20466;-85
2024/02/04 01:05:08;;;;;;;2.70;1.53;;;21.60;68.20;;;;;;4938033;28;20980;-85
2024/02/04 01:07:36;;;;;;;3.00;2.67;;;21.50;68.10;;;;;;4941650;28;20462;-85
2024/02/04 01:10:03;;;;;;;3.37;2.40;;;21.50;68.20;;;;;;4938072;28;20458;-85
2024/02/04 01:12:30;;;;;;;3.07;2.10;;;21.50;68.10;;;;;;4937648;28;20912;-85
2024/02/04 01:14:57;;;;;;;3.13;1.83;;;21.50;68.10;;;;;;4935702;28;21084;-86
2024/02/04 01:17:23;;;;;;;2.80;2.10;;;21.50;68.20;;;;;;4926126;28;26031;-85
2024/02/04 01:19:50;;;;;;;3.45;2.20;;;21.40;68.00;;;;;;4936513;28;21028;-87
2024/02/04 01:22:17;;;;;;;2.33;1.93;;;21.40;68.00;;;;;;4936220;28;20234;-86
2024/02/04 01:24:48;;;;;;;2.80;2.23;;;21.40;68.10;;;;;;4936215;28;20460;-86
2024/02/04 01:27:14;;;;;;;2.53;1.90;;;21.40;68.10;;;;;;4936090;28;20996;-85
2024/02/04 01:29:41;;;;;;;2.13;1.97;;;21.40;68.10;;;;;;4938065;28;20462;-86
2024/02/04 01:32:08;;;;;;;2.70;2.37;;;21.40;68.10;;;;;;4936385;28;20566;-85
2024/02/04 01:34:35;;;;;;;3.50;2.50;;;21.40;68.10;;;;;;4928920;28;20836;-85
2024/02/04 01:37:01;;;;;;;2.33;2.00;;;21.30;68.00;;;;;;4932643;28;21081;-86
2024/02/04 01:39:28;;;;;;;2.13;1.87;;;21.30;68.00;;;;;;4930381;28;21461;-85
2024/02/04 01:41:56;;;;;;;2.30;2.10;;;21.30;68.00;;;;;;4932323;28;20460;-85
2024/02/04 01:44:23;;;;;;;2.80;2.00;;;21.30;68.10;;;;;;4933323;28;21539;-86
2024/02/04 01:46:53;;;;;;;3.57;2.50;;;21.30;68.10;;;;;;4935805;28;22314;-84
2024/02/04 01:49:20;;;;;;;2.50;1.93;;;21.30;68.20;;;;;;4925716;28;21174;-85
2024/02/04 01:51:47;;;;;;;3.55;2.50;;;21.30;68.20;;;;;;4942612;28;21036;-84
2024/02/04 01:54:13;;;;;;;2.60;2.00;;;21.20;68.20;;;;;;4952764;28;20215;-85
2024/02/04 01:56:40;;;;;;;4.97;2.00;;;21.20;68.20;;;;;;4957860;28;20199;-85
2024/02/04 01:59:09;;;;;;;3.50;2.80;;;21.20;68.10;;;;;;4955003;28;20465;-84
2024/02/04 02:01:36;;;;;;;2.77;1.70;;;21.20;68.30;;;;;;4953888;28;21209;-85
2024/02/04 02:04:02;;;;;;;3.27;2.60;;;21.20;68.20;;;;;;4951994;28;21131;-85
2024/02/04 02:06:29;;;;;;;2.67;2.17;;;21.20;68.20;;;;;;4957448;28;21099;-85
2024/02/04 02:08:59;;;;;;;4.20;3.80;;;21.10;68.20;;;;;;4954596;28;20462;-85
2024/02/04 02:11:36;;;;;;;1.83;1.73;;;21.10;68.30;;;;;;4958777;28;20629;-85
2024/02/04 02:14:07;;;;;;;3.20;2.03;;;21.10;68.20;;;;;;4948681;28;26271;-85
2024/02/04 02:16:35;;;;;;;2.37;2.17;;;21.10;68.10;;;;;;4957244;28;20461;-84
2024/02/04 02:19:13;;;;;;;2.35;2.15;;;21.10;68.20;;;;;;4958482;28;20454;-85
2024/02/04 02:21:48;;;;;;;2.47;2.00;;;21.10;68.30;;;;;;4955358;28;20271;-85
2024/02/04 02:24:18;;;;;;;3.17;2.20;;;21.10;68.30;;;;;;4954160;28;25803;-85
2024/02/04 02:26:46;;;;;;;4.80;2.10;;;21.00;68.10;;;;;;4955971;28;20310;-85
2024/02/04 02:29:13;;;;;;;2.30;2.10;;;21.00;68.20;;;;;;4955023;28;21048;-85
2024/02/04 02:31:42;;;;;;;2.40;2.20;;;21.00;68.20;;;;;;4943458;28;21088;-85
2024/02/04 02:34:11;;;;;;;2.13;1.93;;;21.00;68.20;;;;;;4954378;28;20219;-86
2024/02/04 02:36:44;;;;;;;2.40;2.20;;;21.00;68.10;;;;;;4955818;28;20876;-86
2024/02/04 02:39:16;;;;;;;2.43;1.93;;;21.00;68.20;;;;;;4950496;28;20231;-85
2024/02/04 02:41:45;;;;;;;3.63;2.08;;;21.00;68.20;;;;;;4954727;28;20993;-86
2024/02/04 02:44:14;;;;;;;2.30;1.70;;;20.90;68.20;;;;;;4959739;28;20191;-85
2024/02/04 02:46:41;;;;;;;2.85;2.00;;;20.90;68.20;;;;;;4956218;28;20469;-86
2024/02/04 02:49:09;;;;;;;2.45;2.25;;;20.90;68.10;;;;;;4953504;28;20210;-85
2024/02/04 02:51:35;;;;;;;2.40;1.90;;;20.90;68.20;;;;;;4951811;28;20278;-85
2024/02/04 02:54:02;;;;;;;2.20;1.98;;;20.90;68.20;;;;;;4953459;28;20205;-85
2024/02/04 02:56:29;;;;;;;2.25;1.98;;;20.90;68.20;;;;;;4943294;28;20752;-86
2024/02/04 02:58:56;;;;;;;2.85;2.55;;;20.90;68.20;;;;;;4956250;28;20673;-84
2024/02/04 03:01:24;;;;;;;3.03;1.97;;;20.80;68.30;;;;;;4954357;28;20545;-85
2024/02/04 03:03:50;;;;;;;2.60;1.98;;;20.80;68.30;;;;;;4949830;28;21098;-86
2024/02/04 03:06:17;;;;;;;3.75;1.85;;;20.80;68.20;;;;;;4945285;28;20675;-85
2024/02/04 03:08:44;;;;;;;2.37;2.17;;;20.80;68.10;;;;;;4951436;28;20641;-85
2024/02/04 03:11:11;;;;;;;3.00;2.00;;;20.80;68.20;;;;;;4948435;28;27424;-86
2024/02/04 03:13:39;;;;;;;3.42;2.03;;;20.80;68.20;;;;;;4950944;28;20892;-85
2024/02/04 03:16:11;;;;;;;3.95;2.20;;;20.70;68.20;;;;;;4947387;28;20703;-87
2024/02/04 03:18:40;;;;;;;2.97;1.92;;;20.70;68.40;;;;;;4949693;28;20645;-85
2024/02/04 03:21:13;;;;;;;2.92;1.95;;;20.70;68.30;;;;;;4944785;28;20812;-86
2024/02/04 03:23:40;;;;;;;2.33;1.85;;;20.70;68.50;;;;;;4949965;28;20735;-86
2024/02/04 03:26:07;;;;;;;2.28;2.08;;;20.70;68.50;;;;;;4947639;28;20458;-84
2024/02/04 03:28:34;;;;;;;1.95;1.75;;;20.70;68.40;;;;;;4952129;28;20223;-87
2024/02/04 03:31:00;;;;;;;2.17;1.97;;;20.70;68.50;;;;;;4942311;28;20208;-85
2024/02/04 03:33:27;;;;;;;3.20;2.20;;;20.70;68.50;;;;;;4952285;28;21224;-86
2024/02/04 03:35:55;;;;;;;2.75;2.55;;;20.70;68.40;;;;;;4948743;28;20234;-85
2024/02/04 03:38:22;;;;;;;2.97;1.98;;;20.70;68.40;;;;;;4953689;28;20212;-86
2024/02/04 03:40:49;;;;;;;2.30;2.10;;;20.70;68.40;;;;;;4950145;28;20199;-86
2024/02/04 03:43:16;;;;;;;1.65;1.55;;;20.60;68.50;;;;;;4949761;28;20860;-87
2024/02/04 03:45:43;;;;;;;2.23;2.00;;;20.60;68.50;;;;;;4946930;28;20196;-86
2024/02/04 03:48:10;;;;;;;1.77;1.67;;;20.60;68.50;;;;;;4947339;28;20552;-86
2024/02/04 03:50:37;;;;;;;1.95;1.65;;;20.60;68.60;;;;;;4949073;28;20230;-86
2024/02/04 03:53:05;;;;;;;2.65;2.10;;;20.60;68.50;;;;;;4952125;28;20207;-86
2024/02/04 03:55:32;;;;;;;2.55;1.73;;;20.60;68.90;;;;;;4949811;28;20223;-86
2024/02/04 03:57:59;;;;;;;2.05;1.80;;;20.60;68.50;;;;;;4953415;28;21193;-86
2024/02/04 04:00:26;;;;;;;3.35;1.90;;;20.60;68.40;;;;;;4940999;28;20204;-87
2024/02/04 04:02:52;;;;;;;2.40;2.05;;;20.60;68.40;;;;;;4947057;28;21083;-86
2024/02/04 04:05:19;;;;;;;2.63;1.83;;;20.60;68.50;;;;;;4954482;28;20246;-86
2024/02/04 04:07:46;;;;;;;2.25;1.98;;;20.50;68.30;;;;;;4948438;28;20253;-87
2024/02/04 04:10:14;;;;;;;2.65;2.10;;;20.60;68.40;;;;;;4952445;28;20231;-86
2024/02/04 04:12:41;;;;;;;1.92;1.50;;;20.50;68.40;;;;;;4940371;28;20250;-86
2024/02/04 04:15:08;;;;;;;2.88;2.03;;;20.50;68.60;;;;;;4955526;28;20564;-86
2024/02/04 04:17:35;;;;;;;2.50;2.28;;;20.50;68.50;;;;;;4949354;28;20693;-86
2024/02/04 04:20:02;;;;;;;2.10;1.90;;;20.50;68.50;;;;;;4951308;28;20200;-86
2024/02/04 04:22:28;;;;;;;1.83;1.70;;;20.50;68.50;;;;;;4946673;28;20208;-86
2024/02/04 04:24:55;;;;;;;1.95;1.85;;;20.50;68.40;;;;;;4950966;28;26260;-87
2024/02/04 04:27:23;;;;;;;2.17;1.83;;;20.50;68.50;;;;;;4947828;28;20408;-86
2024/02/04 04:29:50;;;;;;;1.85;1.63;;;20.50;68.40;;;;;;4948581;28;20199;-86
2024/02/04 04:32:17;;;;;;;2.53;2.03;;;20.50;68.50;;;;;;4948852;28;26413;-86
2024/02/04 04:34:43;;;;;;;1.95;1.75;;;20.40;68.40;;;;;;4944240;28;20381;-87
2024/02/04 04:37:10;;;;;;;2.20;2.00;;;20.40;68.40;;;;;;4949518;28;20209;-86
2024/02/04 04:39:37;;;;;;;2.38;2.17;;;20.40;68.60;;;;;;4950348;28;20379;-86
2024/02/04 04:42:04;;;;;;;2.10;1.85;;;20.40;68.60;;;;;;4949473;28;20203;-86
2024/02/04 04:44:32;;;;;;;2.63;1.67;;;20.40;68.50;;;;;;4948121;28;20227;-86
2024/02/04 04:46:59;;;;;;;2.35;2.15;;;20.40;68.70;;;;;;4944751;28;20502;-86
2024/02/04 04:49:26;;;;;;;1.90;1.70;;;20.40;68.80;;;;;;4951343;28;20207;-86
2024/02/04 04:51:52;;;;;;;1.75;1.63;;;20.40;68.80;;;;;;4947115;28;20210;-87
2024/02/04 04:54:19;;;;;;;2.55;1.85;;;20.40;68.90;;;;;;4947217;28;25559;-86
2024/02/04 04:56:46;;;;;;;2.22;1.73;;;20.40;68.90;;;;;;4943161;28;20230;-86
2024/02/04 04:59:13;;;;;;;2.58;2.00;;;20.40;68.80;;;;;;4949992;28;20747;-87
2024/02/04 05:01:47;;;;;;;2.30;1.95;;;20.40;68.90;;;;;;4940888;28;20334;-85
2024/02/04 05:04:14;;;;;;;1.45;1.35;;;20.30;68.70;;;;;;4940991;28;20204;-84
2024/02/04 05:06:41;;;;;;;2.08;1.88;;;20.40;68.70;;;;;;4947822;28;21384;-85
2024/02/04 05:09:08;;;;;;;2.97;2.15;;;20.30;68.60;;;;;;4945324;28;20303;-86
2024/02/04 05:11:35;;;;;;;1.90;1.50;;;20.30;68.50;;;;;;4947588;28;20346;-86
2024/02/04 05:14:02;;;;;;;2.05;1.85;;;20.30;68.50;;;;;;4943801;28;20919;-85
2024/02/04 05:16:29;;;;;;;1.85;1.75;;;20.30;68.60;;;;;;4939918;28;20284;-86
2024/02/04 05:18:57;;;;;;;1.90;1.77;;;20.30;68.60;;;;;;4945824;28;20200;-86
2024/02/04 05:21:24;;;;;;;1.98;1.83;;;20.30;68.60;;;;;;4943970;28;20543;-85
2024/02/04 05:23:50;;;;;;;2.75;2.10;;;20.30;68.50;;;;;;4943116;28;20207;-85
2024/02/04 05:26:19;;;;;;;2.50;1.80;;;20.30;68.70;;;;;;4938239;28;25709;-86
2024/02/04 05:28:46;;;;;;;2.20;2.00;;;20.30;68.80;;;;;;4942608;28;20261;-84
2024/02/04 05:31:13;;;;;;;2.30;2.10;;;20.30;68.70;;;;;;4943827;28;20334;-83
2024/02/04 05:33:39;;;;;;;2.05;1.85;;;20.30;68.70;;;;;;4946827;28;20243;-83
2024/02/04 05:36:08;;;;;;;2.00;1.80;;;20.20;68.60;;;;;;4936412;28;20396;-83
2024/02/04 05:38:35;;;;;;;2.30;2.10;;;20.20;69.50;;;;;;4940919;28;20335;-82
2024/02/04 05:41:01;;;;;;;2.05;1.65;;;20.20;68.70;;;;;;4948792;28;20604;-83
2024/02/04 05:43:28;;;;;;;1.80;1.70;;;20.20;68.60;;;;;;4942370;28;20227;-83
2024/02/04 05:45:55;;;;;;;2.17;1.98;;;20.20;68.50;;;;;;4933648;28;20915;-82
2024/02/04 05:48:21;;;;;;;1.60;1.50;;;20.20;68.70;;;;;;4941139;28;20712;-83
2024/02/04 05:50:48;;;;;;;2.60;2.40;;;20.20;68.90;;;;;;4938731;28;20207;-83
2024/02/04 05:53:16;;;;;;;2.22;1.90;;;20.20;68.90;;;;;;4939206;28;20638;-83
2024/02/04 05:55:43;;;;;;;3.17;1.90;;;20.20;68.90;;;;;;4945925;28;20710;-82
2024/02/04 05:58:10;;;;;;;1.98;1.88;;;20.20;69.00;;;;;;4942786;28;20548;-84
2024/02/04 06:00:37;;;;;;;2.40;2.05;;;20.20;68.90;;;;;;4941322;28;20634;-83
2024/02/04 06:03:04;;;;;;;2.20;2.10;;;20.10;68.80;;;;;;4941752;28;20250;-84
2024/02/04 06:05:31;;;;;;;3.65;2.40;;;20.20;69.00;;;;;;4944836;28;20200;-83
2024/02/04 06:07:58;;;;;;;2.88;2.15;;;20.20;68.70;;;;;;4941079;28;20199;-83
2024/02/04 06:10:26;;;;;;;1.55;1.45;;;20.20;69.00;;;;;;4941995;28;26238;-83
2024/02/04 06:12:52;;;;;;;2.00;1.80;;;20.20;69.00;;;;;;4944567;28;20200;-84
2024/02/04 06:15:20;;;;;;;2.30;1.97;;;20.10;68.90;;;;;;4938468;28;20204;-83
2024/02/04 06:17:47;;;;;;;2.30;1.70;;;20.10;68.70;;;;;;4939417;28;20459;-83
2024/02/04 06:20:13;;;;;;;2.00;1.67;;;20.10;68.70;;;;;;4942306;28;20412;-83
2024/02/04 06:22:40;;;;;;;2.17;1.97;;;20.10;68.90;;;;;;4943584;28;20214;-81
2024/02/04 06:25:08;;;;;;;2.75;2.03;;;20.10;68.70;;;;;;4942313;28;20466;-83
2024/02/04 06:27:36;;;;;;;3.00;2.17;;;20.10;68.80;;;;;;4936689;28;20326;-83
2024/02/04 06:30:03;;;;;;;2.10;1.88;;;20.10;68.80;;;;;;4946213;28;20836;-83
2024/02/04 06:32:29;;;;;;;1.70;1.55;;;20.10;68.70;;;;;;4944586;28;20296;-83
2024/02/04 06:34:56;;;;;;;1.98;1.77;;;20.10;68.80;;;;;;4940081;28;20258;-84
2024/02/04 06:37:23;;;;;;;2.60;2.40;;;20.10;69.00;;;;;;4947445;28;20223;-83
2024/02/04 06:39:50;;;;;;;1.75;1.48;;;20.10;68.90;;;;;;4947094;28;20203;-83
2024/02/04 06:42:16;;;;;;;1.92;1.65;;;20.10;68.80;;;;;;4946821;28;20306;-84
2024/02/04 06:44:45;;;;;;;1.85;1.75;;;20.10;68.90;;;;;;4946506;28;20764;-83
2024/02/04 06:47:13;;;;;;;2.00;1.63;;;20.10;69.00;;;;;;4948844;28;20362;-82
2024/02/04 06:49:40;;;;;;;3.75;1.67;;;20.10;68.90;;;;;;4952539;28;20719;-88
2024/02/04 06:52:07;;;;;;;2.35;1.65;;;20.10;69.40;;;;;;4943153;28;20397;-83
2024/02/04 06:54:33;;;;;;;2.60;1.70;;;20.00;69.30;;;;;;4944620;28;20200;-83
2024/02/04 06:57:00;;;;;;;1.83;1.73;;;20.00;69.20;;;;;;4941108;28;25863;-83
2024/02/04 06:59:27;;;;;;;1.80;1.70;;;20.10;69.50;;;;;;4947219;28;20207;-83
2024/02/04 07:01:55;;;;;;;1.70;1.60;;;20.00;69.10;;;;;;4943739;28;20204;-82
2024/02/04 07:04:23;;;;;;;1.60;1.50;;;20.00;69.30;;;;;;4943648;28;20657;-83
2024/02/04 07:06:51;;;;;;;2.45;2.15;;;20.00;69.20;;;;;;4949390;28;20769;-83
2024/02/04 07:09:18;;;;;;;1.92;1.77;;;20.00;69.40;;;;;;4947114;28;20208;-83
2024/02/04 07:11:44;;;;;;;1.67;1.58;;;20.00;69.20;;;;;;4942761;28;20715;-83
2024/02/04 07:14:12;;;;;;;2.17;1.98;;;20.00;69.30;;;;;;4940878;28;20281;-82
2024/02/04 07:16:39;;;;;;;1.80;1.70;;;20.00;69.40;;;;;;4947490;28;20226;-83
2024/02/04 07:19:07;;;;;;;2.70;2.00;;;20.00;69.30;;;;;;4948067;28;20214;-84
2024/02/04 07:21:34;;;;;;;2.03;1.90;;;20.00;69.20;;;;;;4950008;28;20210;-84
2024/02/04 07:24:00;;;;;;;1.60;1.50;;;20.00;69.30;;;;;;4951972;28;20235;-84
2024/02/04 07:26:27;;;;;;;2.10;1.55;;;20.00;69.40;;;;;;4943376;28;20223;-84
2024/02/04 07:28:54;;;;;;;1.70;1.60;;;20.00;70.10;;;;;;4944686;28;20222;-83
2024/02/04 07:31:22;;;;;;;1.90;1.77;;;20.00;69.30;;;;;;4943601;28;20199;-86
2024/02/04 07:33:49;;;;;;;2.00;1.80;;;20.00;69.90;;;;;;4935897;28;20470;-85
2024/02/04 07:36:17;;;;;;;2.03;1.83;;;20.00;69.80;;;;;;4947266;28;20610;-84
2024/02/04 07:38:44;;;;;;;1.60;1.50;;;20.00;70.00;;;;;;4944394;28;21125;-84
2024/02/04 07:41:14;;;;;;;1.85;1.67;;;20.00;70.10;;;;;;4947235;28;20655;-85
2024/02/04 07:43:40;;;;;;;1.95;1.45;;;20.00;70.40;;;;;;4943366;28;20472;-85
2024/02/04 07:46:09;;;;;;;1.90;1.75;;;20.00;70.60;;;;;;4946724;28;20227;-84
2024/02/04 07:48:36;;;;;;;1.48;1.35;;;20.00;70.60;;;;;;4948073;28;20205;-87
2024/02/04 07:51:02;;;;;;;1.77;1.65;;;20.10;70.90;;;;;;4946688;28;20215;-83
2024/02/04 07:53:30;;;;;;;6.22;1.45;;;20.10;71.00;;;;;;4945011;28;20831;-84
2024/02/04 07:55:58;;;;;;;7.28;2.20;;;20.10;71.30;;;;;;4946444;28;20832;-83
2024/02/04 07:58:26;;;;;;;2.20;1.98;;;20.10;71.50;;;;;;4945321;28;20200;-83
2024/02/04 08:00:52;;;;;;;1.60;1.50;;;20.20;71.50;;;;;;4942706;28;20278;-83
2024/02/04 08:03:19;;;;;;;2.27;1.83;;;20.20;71.60;;;;;;4939597;28;20293;-83
2024/02/04 08:05:46;;;;;;;1.85;1.20;;;20.20;71.40;;;;;;4944647;28;21064;-83
2024/02/04 08:08:13;;;;;;;16.13;2.20;;;20.20;71.40;;;;;;4944747;28;20211;-83
2024/02/04 08:10:41;;;;;;;4.35;1.70;;;20.20;71.40;;;;;;4938792;28;25650;-84
2024/02/04 08:13:08;;;;;;;2.10;1.60;;;20.20;71.70;;;;;;4949527;28;20719;-84
2024/02/04 08:15:35;;;;;;;1.80;1.20;;;20.30;71.50;;;;;;4939592;28;20464;-85
2024/02/04 08:18:02;;;;;;;2.10;1.45;;;20.30;71.40;;;;;;4940622;28;20762;-85
2024/02/04 08:20:29;;;;;;;2.03;1.70;;;20.30;71.40;;;;;;4934611;28;20836;-85
2024/02/04 08:22:56;;;;;;;1.40;1.30;;;20.30;71.30;;;;;;4940704;28;20474;-84
2024/02/04 08:25:22;;;;;;;1.75;1.27;;;20.30;71.20;;;;;;4943367;28;20458;-84
2024/02/04 08:27:50;;;;;;;1.85;1.55;;;20.30;71.00;;;;;;4944417;28;20528;-84
2024/02/04 08:30:18;;;;;;;1.40;1.30;;;20.40;71.20;;;;;;4945067;28;20279;-84
2024/02/04 08:32:45;;;;;;;1.53;1.33;;;20.40;71.20;;;;;;4947194;28;20235;-85
2024/02/04 08:35:12;;;;;;;1.30;1.20;;;20.40;71.00;;;;;;4945532;28;20499;-85
2024/02/04 08:37:39;;;;;;;1.90;1.70;;;20.40;70.90;;;;;;4945080;28;20769;-84
2024/02/04 08:40:07;;;;;;;1.52;1.40;;;20.40;71.00;;;;;;4945620;28;20203;-84
2024/02/04 08:42:34;;;;;;;2.65;1.60;;;20.40;71.00;;;;;;4940160;28;20810;-84
2024/02/04 08:45:02;;;;;;;2.43;1.30;;;20.40;70.80;;;;;;4945650;28;20207;-84
2024/02/04 08:47:29;;;;;;;2.08;1.65;;;20.40;70.80;;;;;;4947728;28;20690;-84
2024/02/04 08:49:56;;;;;;;1.73;1.60;;;20.40;70.80;;;;;;4940167;28;20199;-83
2024/02/04 08:52:22;;;;;;;1.70;1.25;;;20.40;70.70;;;;;;4946315;28;21023;-84
2024/02/04 08:54:49;;;;;;;1.73;1.60;;;20.40;70.70;;;;;;4942474;28;20199;-85
2024/02/04 08:57:16;;;;;;;1.60;1.38;;;20.50;70.80;;;;;;4944413;28;20549;-83
2024/02/04 08:59:43;;;;;;;2.50;1.37;;;20.50;70.70;;;;;;4940667;28;20334;-84
2024/02/04 09:02:11;;;;;;;1.67;1.52;;;20.50;70.70;;;;;;4943399;28;20570;-84
2024/02/04 09:04:40;;;;;;;1.60;1.30;;;20.50;70.70;;;;;;4940620;28;20322;-85
2024/02/04 09:07:07;;;;;;;1.40;1.30;;;20.50;70.60;;;;;;4943319;28;21394;-83
2024/02/04 09:09:34;;;;;;;1.75;1.40;;;20.50;70.60;;;;;;4942896;28;20553;-84
2024/02/04 09:12:01;;;;;;;1.20;1.00;;;20.50;70.60;;;;;;4944293;28;20646;-85
2024/02/04 09:14:28;;;;;;;1.90;1.30;;;20.50;70.50;;;;;;4945875;28;20334;-84
2024/02/04 09:16:55;;;;;;;1.30;1.20;;;20.50;70.60;;;;;;4946333;28;21072;-83
2024/02/04 09:19:24;;;;;;;1.47;1.23;;;20.50;70.60;;;;;;4942070;28;20502;-84
2024/02/04 09:21:51;;;;;;;1.60;1.30;;;20.60;70.60;;;;;;4945113;28;26717;-84
2024/02/04 09:24:17;;;;;;;2.00;1.43;;;20.50;70.40;;;;;;4949573;28;20204;-83
2024/02/04 09:26:44;;;;;;;1.40;1.30;;;20.60;70.60;;;;;;4945334;28;20458;-86
2024/02/04 09:29:11;;;;;;;1.50;1.20;;;20.60;70.60;;;;;;4946763;28;20250;-86
2024/02/04 09:31:37;;;;;;;1.30;1.13;;;20.60;70.60;;;;;;4948426;28;20350;-86
2024/02/04 09:34:04;;;;;;;1.97;1.20;;;20.60;70.60;;;;;;4948764;28;20442;-87
2024/02/04 09:36:32;;;;;;;2.95;1.10;;;20.60;70.60;;;;;;4949668;28;20585;-86
2024/02/04 09:38:59;;;;;;;1.63;1.40;;;20.60;70.60;;;;;;4942923;28;20642;-86
2024/02/04 09:41:26;;;;;;;1.38;1.00;;;20.60;70.40;;;;;;4942416;28;20593;-86
2024/02/04 09:43:54;;;;;;;1.63;1.00;;;20.60;70.60;;;;;;4944974;28;20207;-85
2024/02/04 09:46:21;;;;;;;1.60;1.30;;;20.60;70.50;;;;;;4957153;28;20206;-87
2024/02/04 09:48:50;;;;;;;2.45;1.50;;;20.60;70.60;;;;;;4945106;28;20470;-86
2024/02/04 09:51:16;;;;;;;2.15;1.80;;;20.60;71.00;;;;;;4955452;28;20607;-86
2024/02/04 09:53:46;;;;;;;2.95;1.85;;;20.50;71.30;;;;;;4956208;28;23774;-87
2024/02/04 09:56:15;;;;;;;10.85;1.77;;;20.50;71.40;;;;;;4957425;28;20591;-88
2024/02/04 09:58:41;;;;;;;1.43;1.20;;;20.60;71.80;;;;;;4961767;28;20754;-87
2024/02/04 10:01:09;;;;;;;1.60;1.30;;;20.60;71.70;;;;;;4967609;28;20549;-87
2024/02/04 10:03:37;;;;;;;1.90;1.50;;;20.60;71.80;;;;;;4973098;28;20207;-88
2024/02/04 10:06:06;;;;;;;1.48;1.20;;;20.60;71.70;;;;;;4990543;28;20196;-89
2024/02/04 10:08:33;;;;;;;2.03;1.83;;;20.60;71.90;;;;;;4978498;28;20313;-88
2024/02/04 10:11:01;;;;;;;5.93;1.50;;;20.60;72.40;;;;;;4963787;28;20469;-87
2024/02/04 10:13:44;;;;;;;3.47;1.80;;;20.60;73.20;;;;;;4985206;28;20199;-90
2024/02/04 10:16:12;;;;;;;1.52;1.42;;;20.50;73.20;;;;;;4986208;28;22719;-87
2024/02/04 10:18:41;;;;;;;4.13;1.50;;;20.70;73.50;;;;;;4982144;28;20642;-88
2024/02/04 10:21:16;;;;;;;1.55;1.13;;;20.70;73.90;;;;;;4972541;28;20227;-87
2024/02/04 10:23:42;;;;;;;5.60;1.57;;;20.70;74.20;;;;;;4968600;28;20246;-87
2024/02/04 10:26:11;;;;;;;1.40;1.20;;;20.80;74.20;;;;;;4982203;28;20532;-89
2024/02/04 10:28:39;;;;;;;1.63;1.20;;;20.80;74.40;;;;;;4967533;28;20211;-89
2024/02/04 10:31:06;;;;;;;2.17;1.20;;;20.90;74.40;;;;;;4972877;28;20759;-88
2024/02/04 10:33:32;;;;;;;1.20;1.10;;;20.90;74.50;;;;;;4975542;28;20192;-89
2024/02/04 10:35:59;;;;;;;2.97;1.47;;;20.90;74.40;;;;;;5011842;28;20477;-89
2024/02/04 10:38:26;;;;;;;3.47;1.47;;;21.00;74.50;;;;;;4989967;28;26692;-88
2024/02/04 10:40:55;;;;;;;7.17;1.67;;;21.00;74.50;;;;;;4974957;28;21330;-87
2024/02/04 10:43:24;;;;;;;2.75;1.67;;;21.10;74.60;;;;;;4976883;28;20458;-87
2024/02/04 10:45:53;;;;;;;9.20;1.30;;;21.10;74.60;;;;;;4968865;28;20293;-87
2024/02/04 10:48:23;;;;;;;2.23;1.30;;;21.20;74.70;;;;;;4969790;28;21687;-86
2024/02/04 10:50:52;;;;;;;1.57;1.40;;;21.20;74.30;;;;;;4970266;28;20490;-88
2024/02/04 10:53:21;;;;;;;2.87;1.30;;;21.20;74.30;;;;;;4970859;28;20465;-85
2024/02/04 10:55:51;;;;;;;1.50;1.20;;;21.30;74.40;;;;;;4969147;28;20458;-87
2024/02/04 10:58:18;;;;;;;4.60;1.33;;;21.30;74.20;;;;;;4976173;28;20481;-88
2024/02/04 11:00:47;;;;;;;3.57;1.60;;;21.30;74.10;;;;;;4975644;28;21428;-87
2024/02/04 11:03:16;;;;;;;1.73;1.33;;;21.40;74.20;;;;;;5009059;28;20488;-89
2024/02/04 11:05:44;;;;;;;1.10;1.00;;;21.40;74.70;;;;;;4983686;28;20454;-87
2024/02/04 11:08:12;;;;;;;2.00;1.70;;;21.70;74.30;;;;;;4972684;28;20465;-87
2024/02/04 11:10:40;;;;;;;2.63;1.20;;;21.40;73.90;;;;;;4971560;28;20466;-87
2024/02/04 11:13:09;;;;;;;1.20;1.00;;;21.50;73.80;;;;;;4967634;28;20470;-86
2024/02/04 11:15:39;;;;;;;2.03;1.10;;;21.50;73.70;;;;;;4974184;28;20462;-87
2024/02/04 11:18:36;;;;;;;1.83;1.10;;;21.50;73.70;;;;;;4966963;28;20966;-88
2024/02/04 11:21:26;;;;;;;1.50;1.10;;;21.50;73.50;;;;;;4972718;28;20460;-88
2024/02/04 11:24:09;;;;;;;3.00;1.13;;;21.50;73.80;;;;;;4965605;28;21016;-87
2024/02/04 11:26:40;;;;;;;1.77;1.20;;;21.60;73.50;;;;;;4987214;28;20462;-88
2024/02/04 11:29:07;;;;;;;1.23;1.07;;;21.60;73.40;;;;;;5028138;28;20463;-87
2024/02/04 11:31:34;;;;;;;4.47;1.37;;;21.50;73.40;;;;;;4997863;28;20462;-88
2024/02/04 11:34:03;;;;;;;1.30;0.93;;;21.60;73.30;;;;;;5011904;28;20488;-88
2024/02/04 11:36:30;;;;;;;1.53;1.03;;;21.70;73.30;;;;;;5011660;28;20463;-88
2024/02/04 11:38:57;;;;;;;3.00;1.53;;;21.60;73.00;;;;;;5009206;28;21438;-89
2024/02/04 11:44:23;;;;;;;1.10;1.00;;;21.70;74.20;;;;;;5031219;22;20442;-63
2024/02/04 11:46:58;;;;;;;3.83;1.20;;;21.70;73.00;;;;;;4805390;28;21216;-63
2024/02/04 11:49:36;;;;;;;2.03;1.33;;;21.80;72.90;;;;;;4806643;28;20459;-59
2024/02/04 11:52:07;;;;;;;2.40;1.30;;;21.80;72.80;;;;;;4793942;28;21547;-65
2024/02/04 11:54:42;;;;;;;1.70;1.03;;;21.80;72.70;;;;;;4801388;28;21709;-62
2024/02/04 11:57:12;;;;;;;1.80;1.20;;;21.80;72.70;;;;;;4805005;28;20498;-65
2024/02/04 11:59:45;;;;;;;2.40;0.90;;;21.80;72.60;;;;;;4805885;28;20467;-62
2024/02/04 12:02:12;;;;;;;1.57;1.00;;;21.90;72.80;;;;;;4808871;28;21376;-63
2024/02/04 12:04:54;;;;;;;1.10;0.90;;;21.90;72.60;;;;;;4807375;28;26662;-64
2024/02/04 12:07:33;;;;;;;2.07;1.20;;;22.00;72.70;;;;;;4804200;28;20999;-63
2024/02/04 12:10:05;;;;;;;2.40;1.30;;;21.90;72.60;;;;;;4806745;28;20630;-64
2024/02/04 12:12:36;;;;;;;1.73;1.17;;;22.00;72.60;;;;;;4809503;28;21050;-66
2024/02/04 12:15:11;;;;;;;1.57;1.20;;;22.00;72.60;;;;;;4802391;28;21004;-67
2024/02/04 12:17:37;;;;;;;3.43;1.20;;;22.00;72.40;;;;;;4800024;28;20563;-69
2024/02/04 12:20:14;;;;;;;1.27;0.90;;;22.00;72.30;;;;;;4799647;28;20591;-70
2024/02/04 12:22:55;;;;;;;1.40;1.30;;;22.00;72.40;;;;;;4795344;28;20460;-68
2024/02/04 12:25:27;;;;;;;2.20;1.00;;;22.00;72.30;;;;;;4810456;28;21020;-67
2024/02/04 12:27:54;;;;;;;3.30;1.50;;;22.00;72.20;;;;;;4811046;28;20511;-67
2024/02/04 12:30:30;;;;;;;1.50;1.20;;;22.00;72.10;;;;;;4809467;28;20565;-69
2024/02/04 12:33:04;;;;;;;1.70;1.00;;;22.00;72.10;;;;;;4798464;28;20586;-68
2024/02/04 12:35:38;;;;;;;1.40;1.00;;;22.10;72.10;;;;;;4810729;28;20483;-66
2024/02/04 12:38:07;;;;;;;2.63;1.37;;;22.10;72.10;;;;;;4811214;28;20488;-68
2024/02/04 12:40:42;;;;;;;1.77;1.10;;;22.10;72.10;;;;;;4807880;28;20870;-69
2024/02/04 12:43:14;;;;;;;1.60;1.13;;;22.10;72.10;;;;;;4812575;28;20575;-66
2024/02/04 12:45:41;;;;;;;1.30;1.20;;;22.10;72.00;;;;;;4804544;28;20475;-70
2024/02/04 12:48:25;;;;;;;;;;;;;;;;;;;;;
2024/02/04 12:51:03;;;;;;;1.70;0.90;;;22.20;72.00;;;;;;4804992;28;20595;-66
2024/02/04 12:53:30;;;;;;;2.27;1.00;;;22.20;71.90;;;;;;4810030;28;20467;-68
2024/02/04 12:56:12;;;;;;;1.30;1.10;;;22.10;71.90;;;;;;4807499;28;21181;-67